createdAt,value
2023-03-15T00:04:09.578Z,4.03
2023-03-15T00:09:12.450Z,4.93
2023-03-15T00:14:15.248Z,3.20
2023-03-15T00:19:19.612Z,3.03
2023-03-15T00:24:24.963Z,3.10
2023-03-15T00:29:27.833Z,3.50
2023-03-15T00:34:33.774Z,2.95
2023-03-15T00:39:38.046Z,2.65
2023-03-15T00:44:44.691Z,2.58
2023-03-15T00:49:50.668Z,2.97
2023-03-15T00:54:54.227Z,2.97
2023-03-15T00:59:58.256Z,2.60
2023-03-15T01:11:24.179Z,3.25
2023-03-15T01:16:30.753Z,2.95
2023-03-15T01:22:00.578Z,2.55
2023-03-15T01:27:04.813Z,3.00
2023-03-15T01:32:08.455Z,2.30
2023-03-15T01:37:14.388Z,2.92
2023-03-15T01:42:20.500Z,2.78
2023-03-15T01:47:25.995Z,3.38
2023-03-15T01:52:34.182Z,3.03
2023-03-15T01:57:44.325Z,3.70
2023-03-15T02:02:51.177Z,4.22
2023-03-15T02:07:59.382Z,3.97
2023-03-15T02:13:09.131Z,4.35
2023-03-15T02:18:12.570Z,3.63
2023-03-15T02:23:18.287Z,3.70
2023-03-15T02:28:23.523Z,3.80
2023-03-15T02:33:29.172Z,5.05
2023-03-15T02:38:31.973Z,4.60
2023-03-15T02:43:37.117Z,5.80
2023-03-15T02:48:42.360Z,5.55
2023-03-15T02:53:45.292Z,7.03
2023-03-15T02:58:49.402Z,7.03
2023-03-15T03:03:52.418Z,7.75
2023-03-15T03:08:55.938Z,6.80
2023-03-15T03:14:00.809Z,7.13
2023-03-15T03:19:04.208Z,7.60
2023-03-15T03:24:08.626Z,6.85
2023-03-15T03:29:16.738Z,6.45
2023-03-15T03:34:22.394Z,7.85
2023-03-15T03:39:26.847Z,8.70
2023-03-15T03:44:31.294Z,6.50
2023-03-15T03:49:34.276Z,7.68
2023-03-15T03:54:37.400Z,6.60
2023-03-15T03:59:42.128Z,6.82
2023-03-15T04:04:50.139Z,7.20
2023-03-15T04:09:55.130Z,7.15
2023-03-15T04:14:59.454Z,7.25
2023-03-15T04:20:10.681Z,6.40
2023-03-15T04:25:16.087Z,6.70
2023-03-15T04:30:27.142Z,6.35
2023-03-15T04:35:49.811Z,6.65
2023-03-15T04:41:10.851Z,7.68
2023-03-15T04:46:25.181Z,10.55
2023-03-15T04:57:11.802Z,7.65
2023-03-15T05:02:42.463Z,8.70
2023-03-15T05:08:12.298Z,6.90
2023-03-15T05:13:33.935Z,8.15
2023-03-15T05:19:01.304Z,5.83
2023-03-15T05:24:24.673Z,6.60
2023-03-15T05:29:35.782Z,5.80
2023-03-15T05:35:06.344Z,4.22
2023-03-15T05:40:42.424Z,3.72
2023-03-15T05:46:10.504Z,3.67
2023-03-15T05:51:30.767Z,2.63
2023-03-15T05:56:52.963Z,3.35
2023-03-15T06:02:16.239Z,3.70
2023-03-15T06:07:37.735Z,4.82
2023-03-15T06:12:41.864Z,4.10
2023-03-15T06:17:45.264Z,4.38
2023-03-15T06:22:50.168Z,3.47
2023-03-15T06:28:04.946Z,3.60
2023-03-15T06:33:08.230Z,3.95
2023-03-15T06:38:13.733Z,3.47
2023-03-15T06:43:19.571Z,3.88
2023-03-15T06:48:23.455Z,4.53
2023-03-15T06:53:31.214Z,5.65
2023-03-15T06:58:34.151Z,6.57
2023-03-15T07:03:38.999Z,6.03
2023-03-15T07:08:43.186Z,5.30
2023-03-15T07:13:46.797Z,6.78
2023-03-15T07:18:50.367Z,5.70
2023-03-15T07:23:56.073Z,5.25
2023-03-15T07:28:59.267Z,5.13
2023-03-15T07:34:02.059Z,6.72
2023-03-15T07:39:06.317Z,5.68
2023-03-15T07:44:11.110Z,6.75
2023-03-15T07:49:13.961Z,4.63
2023-03-15T07:54:19.351Z,4.55
2023-03-15T07:59:22.279Z,4.80
2023-03-15T08:04:26.680Z,5.60
2023-03-15T08:09:34.922Z,4.63
2023-03-15T08:14:37.702Z,5.70
2023-03-15T08:19:40.961Z,8.52
2023-03-15T08:24:46.240Z,16.13
2023-03-15T08:29:51.885Z,7.25
2023-03-15T08:34:56.283Z,7.63
2023-03-15T08:40:08.296Z,8.05
2023-03-15T08:45:12.259Z,6.90
2023-03-15T08:50:19.384Z,7.80
2023-03-15T08:55:23.730Z,6.33
2023-03-15T09:00:27.693Z,6.18
2023-03-15T09:05:30.906Z,4.82
2023-03-15T09:10:35.393Z,5.03
2023-03-15T09:15:40.356Z,5.15
2023-03-15T09:20:45.521Z,4.43
2023-03-15T09:25:49.845Z,4.75
2023-03-15T09:30:53.107Z,4.53
2023-03-15T09:35:55.979Z,4.63
2023-03-15T09:41:03.830Z,3.80
2023-03-15T09:46:20.443Z,4.00
2023-03-15T09:51:35.568Z,4.43
2023-03-15T09:56:47.255Z,5.78
2023-03-15T10:01:53.806Z,3.90
2023-03-15T10:07:02.431Z,3.42
2023-03-15T10:12:13.188Z,3.65
2023-03-15T10:17:22.390Z,4.10
2023-03-15T10:22:30.588Z,4.85
2023-03-15T10:27:39.906Z,5.22
2023-03-15T10:32:45.411Z,4.32
2023-03-15T10:37:50.319Z,4.35
2023-03-15T10:42:58.822Z,4.45
2023-03-15T10:48:02.331Z,5.03
2023-03-15T10:53:11.487Z,5.07
2023-03-15T10:58:26.357Z,4.57
2023-03-15T11:03:31.818Z,4.72
2023-03-15T11:08:40.404Z,6.65
2023-03-15T11:14:00.558Z,4.18
2023-03-15T11:19:06.592Z,9.45
2023-03-15T11:24:23.815Z,4.25
2023-03-15T11:29:29.895Z,5.05
2023-03-15T11:34:39.582Z,4.32
2023-03-15T11:39:50.323Z,5.05
2023-03-15T11:45:01.394Z,4.55
2023-03-15T11:50:04.460Z,3.90
2023-03-15T11:55:07.974Z,3.85
2023-03-15T12:00:49.751Z,2.95
2023-03-15T12:06:02.401Z,3.42
2023-03-15T12:11:13.599Z,3.05
2023-03-15T12:16:22.952Z,2.13
2023-03-15T12:21:33.602Z,2.33
2023-03-15T12:26:42.914Z,2.53
2023-03-15T12:37:05.567Z,2.70
2023-03-15T12:42:14.018Z,3.00
2023-03-15T12:47:17.470Z,2.08
2023-03-15T12:52:42.426Z,2.05
2023-03-15T12:57:52.412Z,2.10
2023-03-15T13:03:07.008Z,2.10
2023-03-15T13:08:22.141Z,2.58
2023-03-15T13:13:37.033Z,1.90
2023-03-15T13:18:49.519Z,2.15
2023-03-15T13:23:59.504Z,1.83
2023-03-15T13:29:06.325Z,2.97
2023-03-15T13:34:16.132Z,2.42
2023-03-15T13:39:24.324Z,2.15
2023-03-15T13:44:28.360Z,3.33
2023-03-15T13:49:33.063Z,3.10
2023-03-15T13:54:37.482Z,4.00
2023-03-15T13:59:48.615Z,3.45
2023-03-15T14:04:57.060Z,2.92
2023-03-15T14:10:28.716Z,2.35
2023-03-15T14:15:39.235Z,2.60
2023-03-15T14:20:44.196Z,2.65
2023-03-15T14:25:53.972Z,2.10
2023-03-15T14:30:58.932Z,4.65
2023-03-15T14:36:03.860Z,2.92
2023-03-15T14:41:21.049Z,2.67
2023-03-15T14:46:24.437Z,2.25
2023-03-15T14:51:31.686Z,2.40
2023-03-15T15:01:47.625Z,4.88
2023-03-15T15:06:54.408Z,2.22
2023-03-15T15:11:58.694Z,2.60
2023-03-15T15:17:01.581Z,2.10
2023-03-15T15:22:04.619Z,3.10
2023-03-15T15:27:10.673Z,3.17
2023-03-15T15:32:13.425Z,2.33
2023-03-15T15:37:17.357Z,2.58
2023-03-15T15:42:21.489Z,2.30
2023-03-15T15:47:24.572Z,1.88
2023-03-15T15:52:30.117Z,2.40
2023-03-15T15:57:34.620Z,2.75
2023-03-15T16:02:41.403Z,2.05
2023-03-15T16:07:46.386Z,2.13
2023-03-15T16:12:54.468Z,3.90
2023-03-15T16:18:02.189Z,2.63
2023-03-15T16:23:06.677Z,4.05
2023-03-15T16:28:11.557Z,17.58
2023-03-15T16:33:16.137Z,4.55
2023-03-15T16:38:24.477Z,3.67
2023-03-15T16:43:29.257Z,13.63
2023-03-15T16:48:32.064Z,3.88
2023-03-15T16:53:37.284Z,5.82
2023-03-15T16:58:42.693Z,3.17
2023-03-15T17:03:47.700Z,2.20
2023-03-15T17:08:51.178Z,2.75
2023-03-15T17:13:55.649Z,2.63
2023-03-15T17:18:58.505Z,4.05
2023-03-15T17:24:01.390Z,4.13
2023-03-15T17:29:06.935Z,2.47
2023-03-15T17:34:10.498Z,3.13
2023-03-15T17:39:17.001Z,3.53
2023-03-15T17:44:21.318Z,3.07
2023-03-15T17:49:26.385Z,3.70
2023-03-15T17:54:29.201Z,5.63
2023-03-15T17:59:33.394Z,5.25
2023-03-15T18:04:36.717Z,5.25
2023-03-15T18:09:39.804Z,8.20
2023-03-15T18:14:44.778Z,6.65
2023-03-15T18:19:47.674Z,13.00
2023-03-15T18:24:50.591Z,12.57
2023-03-15T18:29:54.855Z,9.85
2023-03-15T18:34:57.694Z,12.15
2023-03-15T18:40:00.752Z,13.65
2023-03-15T18:45:05.601Z,11.48
2023-03-15T18:50:12.761Z,11.82
2023-03-15T18:55:18.247Z,13.07
2023-03-15T19:00:26.178Z,15.82
2023-03-15T19:05:31.139Z,15.45
2023-03-15T19:10:34.030Z,10.27
2023-03-15T19:15:40.769Z,11.02
2023-03-15T19:20:43.600Z,17.58
2023-03-15T19:25:47.175Z,17.75
2023-03-15T19:30:51.855Z,19.90
2023-03-15T19:35:54.796Z,17.63
2023-03-15T19:40:58.801Z,16.63
2023-03-15T19:46:07.933Z,14.77
2023-03-15T19:51:11.379Z,16.23
2023-03-15T19:56:14.446Z,14.80
2023-03-15T20:01:20.665Z,16.63
2023-03-15T20:06:26.006Z,15.77
2023-03-15T20:11:29.439Z,14.30
2023-03-15T20:16:33.944Z,13.52
2023-03-15T20:21:37.464Z,12.40
2023-03-15T20:26:40.859Z,14.23
2023-03-15T20:31:46.894Z,13.55
2023-03-15T20:36:52.671Z,8.95
2023-03-15T20:41:55.798Z,10.50
2023-03-15T20:47:01.491Z,11.82
2023-03-15T20:52:05.157Z,12.13
2023-03-15T20:57:09.889Z,11.27
2023-03-15T21:02:14.849Z,11.65
2023-03-15T21:07:17.740Z,11.50
2023-03-15T21:12:20.743Z,12.63
2023-03-15T21:17:25.271Z,10.75
2023-03-15T21:22:28.117Z,11.68
2023-03-15T21:27:33.059Z,10.32
2023-03-15T21:32:38.937Z,11.55
2023-03-15T21:37:41.818Z,11.77
2023-03-15T21:42:47.780Z,12.48
2023-03-15T21:47:52.630Z,14.65
2023-03-15T21:52:55.494Z,15.63
2023-03-15T21:57:58.285Z,14.82
2023-03-15T22:03:02.447Z,12.77
2023-03-15T22:08:05.164Z,13.70
2023-03-15T22:13:08.033Z,12.40
2023-03-15T22:18:12.310Z,12.93
2023-03-15T22:23:15.203Z,13.95
2023-03-15T22:28:18.120Z,12.57
2023-03-15T22:33:22.883Z,12.75
2023-03-15T22:38:26.838Z,12.27
2023-03-15T22:43:29.630Z,13.32
2023-03-15T22:48:34.604Z,15.25
2023-03-15T22:53:37.930Z,14.23
2023-03-15T22:58:40.785Z,12.68
2023-03-15T23:03:44.873Z,13.27
2023-03-15T23:08:48.006Z,13.25
2023-03-15T23:13:50.914Z,14.75
2023-03-15T23:18:55.176Z,11.90
2023-03-15T23:23:58.250Z,12.32
2023-03-15T23:29:01.060Z,9.95
2023-03-15T23:34:05.977Z,11.80
2023-03-15T23:39:09.268Z,9.80
2023-03-15T23:44:12.258Z,9.85
2023-03-15T23:49:16.440Z,10.13
2023-03-15T23:54:19.348Z,10.48
2023-03-15T23:59:22.530Z,9.30
